sensor_id;sensor_type;location;lat;lon;timestamp;P1;durP1;ratioP1;P2;durP2;ratioP2
46729;SDS011;32476;50.002;11.854;2022-11-20T00:01:16;20.30;;;7.20;;
46729;SDS011;32476;50.002;11.854;2022-11-20T00:03:47;41.47;;;8.70;;
46729;SDS011;32476;50.002;11.854;2022-11-20T00:06:14;15.10;;;6.67;;
46729;SDS011;32476;50.002;11.854;2022-11-20T00:08:42;40.73;;;7.20;;
46729;SDS011;32476;50.002;11.854;2022-11-20T00:11:12;107.83;;;10.00;;
46729;SDS011;32476;50.002;11.854;2022-11-20T00:13:49;13.13;;;6.80;;
46729;SDS011;32476;50.002;11.854;2022-11-20T00:16:21;22.50;;;6.80;;
46729;SDS011;32476;50.002;11.854;2022-11-20T00:18:49;30.10;;;6.17;;
46729;SDS011;32476;50.002;11.854;2022-11-20T00:21:17;39.73;;;7.47;;
46729;SDS011;32476;50.002;11.854;2022-11-20T00:23:48;18.67;;;6.10;;
46729;SDS011;32476;50.002;11.854;2022-11-20T00:26:17;13.97;;;6.20;;
46729;SDS011;32476;50.002;11.854;2022-11-20T00:28:48;15.20;;;7.73;;
46729;SDS011;32476;50.002;11.854;2022-11-20T00:31:18;31.57;;;8.33;;
46729;SDS011;32476;50.002;11.854;2022-11-20T00:33:44;25.93;;;7.97;;
46729;SDS011;32476;50.002;11.854;2022-11-20T00:36:14;18.70;;;7.40;;
46729;SDS011;32476;50.002;11.854;2022-11-20T00:38:45;20.57;;;6.00;;
46729;SDS011;32476;50.002;11.854;2022-11-20T00:41:13;26.23;;;6.03;;
46729;SDS011;32476;50.002;11.854;2022-11-20T00:43:40;76.60;;;7.50;;
46729;SDS011;32476;50.002;11.854;2022-11-20T00:46:09;97.57;;;8.00;;
46729;SDS011;32476;50.002;11.854;2022-11-20T00:48:42;29.00;;;5.10;;
46729;SDS011;32476;50.002;11.854;2022-11-20T00:51:11;31.30;;;6.47;;
46729;SDS011;32476;50.002;11.854;2022-11-20T00:53:39;16.73;;;5.47;;
46729;SDS011;32476;50.002;11.854;2022-11-20T00:56:06;27.50;;;6.97;;
46729;SDS011;32476;50.002;11.854;2022-11-20T00:58:37;25.20;;;6.97;;
46729;SDS011;32476;50.002;11.854;2022-11-20T01:01:09;45.87;;;7.00;;
46729;SDS011;32476;50.002;11.854;2022-11-20T01:03:44;46.23;;;7.83;;
46729;SDS011;32476;50.002;11.854;2022-11-20T01:06:17;104.30;;;9.20;;
46729;SDS011;32476;50.002;11.854;2022-11-20T01:08:56;51.13;;;9.03;;
46729;SDS011;32476;50.002;11.854;2022-11-20T01:11:27;20.17;;;7.63;;
46729;SDS011;32476;50.002;11.854;2022-11-20T01:13:58;112.20;;;8.87;;
46729;SDS011;32476;50.002;11.854;2022-11-20T01:16:28;33.97;;;6.70;;
46729;SDS011;32476;50.002;11.854;2022-11-20T01:18:59;32.83;;;7.83;;
46729;SDS011;32476;50.002;11.854;2022-11-20T01:21:30;51.13;;;7.50;;
46729;SDS011;32476;50.002;11.854;2022-11-20T01:24:03;36.93;;;7.77;;
46729;SDS011;32476;50.002;11.854;2022-11-20T01:26:33;75.87;;;8.40;;
46729;SDS011;32476;50.002;11.854;2022-11-20T01:29:03;67.60;;;8.60;;
46729;SDS011;32476;50.002;11.854;2022-11-20T01:31:31;13.37;;;5.73;;
46729;SDS011;32476;50.002;11.854;2022-11-20T01:34:01;8.20;;;5.20;;
46729;SDS011;32476;50.002;11.854;2022-11-20T01:36:33;9.63;;;5.73;;
46729;SDS011;32476;50.002;11.854;2022-11-20T01:39:02;10.23;;;5.60;;
46729;SDS011;32476;50.002;11.854;2022-11-20T01:41:39;9.90;;;5.17;;
46729;SDS011;32476;50.002;11.854;2022-11-20T01:47:32;28.07;;;6.07;;
46729;SDS011;32476;50.002;11.854;2022-11-20T01:55:17;160.67;;;10.60;;
46729;SDS011;32476;50.002;11.854;2022-11-20T01:57:49;171.97;;;11.47;;
46729;SDS011;32476;50.002;11.854;2022-11-20T02:00:16;130.47;;;10.27;;
46729;SDS011;32476;50.002;11.854;2022-11-20T02:02:48;157.20;;;11.53;;
46729;SDS011;32476;50.002;11.854;2022-11-20T02:08:04;34.63;;;6.90;;
46729;SDS011;32476;50.002;11.854;2022-11-20T02:10:33;82.03;;;8.90;;
46729;SDS011;32476;50.002;11.854;2022-11-20T02:12:59;25.73;;;6.33;;
46729;SDS011;32476;50.002;11.854;2022-11-20T02:15:46;38.07;;;6.47;;
46729;SDS011;32476;50.002;11.854;2022-11-20T02:18:13;45.93;;;6.70;;
46729;SDS011;32476;50.002;11.854;2022-11-20T02:20:43;24.63;;;6.30;;
46729;SDS011;32476;50.002;11.854;2022-11-20T02:23:23;29.47;;;7.00;;
46729;SDS011;32476;50.002;11.854;2022-11-20T02:25:58;19.63;;;7.00;;
46729;SDS011;32476;50.002;11.854;2022-11-20T02:28:30;33.20;;;7.33;;
46729;SDS011;32476;50.002;11.854;2022-11-20T02:30:56;36.27;;;7.80;;
46729;SDS011;32476;50.002;11.854;2022-11-20T02:33:22;23.53;;;6.47;;
46729;SDS011;32476;50.002;11.854;2022-11-20T02:35:49;17.97;;;7.37;;
46729;SDS011;32476;50.002;11.854;2022-11-20T02:38:15;13.50;;;5.90;;
46729;SDS011;32476;50.002;11.854;2022-11-20T02:40:41;18.83;;;6.20;;
46729;SDS011;32476;50.002;11.854;2022-11-20T02:43:09;15.27;;;7.70;;
46729;SDS011;32476;50.002;11.854;2022-11-20T02:45:36;15.33;;;7.03;;
46729;SDS011;32476;50.002;11.854;2022-11-20T02:48:02;21.77;;;7.30;;
46729;SDS011;32476;50.002;11.854;2022-11-20T02:50:30;12.10;;;6.17;;
46729;SDS011;32476;50.002;11.854;2022-11-20T02:52:55;12.40;;;6.47;;
46729;SDS011;32476;50.002;11.854;2022-11-20T02:55:22;9.20;;;5.33;;
46729;SDS011;32476;50.002;11.854;2022-11-20T02:57:49;15.33;;;5.67;;
46729;SDS011;32476;50.002;11.854;2022-11-20T03:00:15;55.83;;;7.10;;
46729;SDS011;32476;50.002;11.854;2022-11-20T03:02:41;65.87;;;9.00;;
46729;SDS011;32476;50.002;11.854;2022-11-20T03:05:09;34.90;;;6.27;;
46729;SDS011;32476;50.002;11.854;2022-11-20T03:07:35;9.77;;;4.93;;
46729;SDS011;32476;50.002;11.854;2022-11-20T03:10:01;38.47;;;5.90;;
46729;SDS011;32476;50.002;11.854;2022-11-20T03:12:28;13.07;;;6.37;;
46729;SDS011;32476;50.002;11.854;2022-11-20T03:14:54;11.73;;;5.87;;
46729;SDS011;32476;50.002;11.854;2022-11-20T03:17:20;11.80;;;5.53;;
46729;SDS011;32476;50.002;11.854;2022-11-20T03:19:48;12.90;;;5.77;;
46729;SDS011;32476;50.002;11.854;2022-11-20T03:22:14;14.80;;;6.23;;
46729;SDS011;32476;50.002;11.854;2022-11-20T03:24:40;10.90;;;5.87;;
46729;SDS011;32476;50.002;11.854;2022-11-20T03:27:07;10.17;;;6.20;;
46729;SDS011;32476;50.002;11.854;2022-11-20T03:29:34;13.70;;;7.43;;
46729;SDS011;32476;50.002;11.854;2022-11-20T03:32:00;15.30;;;7.40;;
46729;SDS011;32476;50.002;11.854;2022-11-20T03:34:28;10.27;;;6.07;;
46729;SDS011;32476;50.002;11.854;2022-11-20T03:36:53;14.50;;;7.17;;
46729;SDS011;32476;50.002;11.854;2022-11-20T03:39:19;12.13;;;6.30;;
46729;SDS011;32476;50.002;11.854;2022-11-20T03:41:47;12.87;;;6.10;;
46729;SDS011;32476;50.002;11.854;2022-11-20T03:44:13;11.07;;;6.27;;
46729;SDS011;32476;50.002;11.854;2022-11-20T03:46:38;12.23;;;6.37;;
46729;SDS011;32476;50.002;11.854;2022-11-20T03:49:06;11.90;;;6.43;;
46729;SDS011;32476;50.002;11.854;2022-11-20T03:51:33;12.37;;;7.10;;
46729;SDS011;32476;50.002;11.854;2022-11-20T03:54:01;13.23;;;6.40;;
46729;SDS011;32476;50.002;11.854;2022-11-20T03:56:33;14.90;;;7.23;;
46729;SDS011;32476;50.002;11.854;2022-11-20T03:59:02;13.07;;;6.77;;
46729;SDS011;32476;50.002;11.854;2022-11-20T04:01:30;14.50;;;7.07;;
46729;SDS011;32476;50.002;11.854;2022-11-20T04:04:00;19.40;;;7.73;;
46729;SDS011;32476;50.002;11.854;2022-11-20T04:06:28;14.07;;;7.10;;
46729;SDS011;32476;50.002;11.854;2022-11-20T04:09:00;12.90;;;7.57;;
46729;SDS011;32476;50.002;11.854;2022-11-20T04:11:28;13.20;;;6.90;;
46729;SDS011;32476;50.002;11.854;2022-11-20T04:14:00;13.93;;;7.30;;
46729;SDS011;32476;50.002;11.854;2022-11-20T04:16:33;14.33;;;7.50;;
46729;SDS011;32476;50.002;11.854;2022-11-20T04:19:02;16.73;;;8.30;;
46729;SDS011;32476;50.002;11.854;2022-11-20T04:21:32;15.07;;;7.80;;
46729;SDS011;32476;50.002;11.854;2022-11-20T04:23:58;14.43;;;7.73;;
46729;SDS011;32476;50.002;11.854;2022-11-20T04:26:25;11.73;;;6.47;;
46729;SDS011;32476;50.002;11.854;2022-11-20T04:28:54;13.33;;;7.53;;
46729;SDS011;32476;50.002;11.854;2022-11-20T04:31:22;12.80;;;7.33;;
46729;SDS011;32476;50.002;11.854;2022-11-20T04:33:50;14.23;;;7.80;;
46729;SDS011;32476;50.002;11.854;2022-11-20T04:36:19;16.10;;;8.20;;
46729;SDS011;32476;50.002;11.854;2022-11-20T04:38:53;17.70;;;8.93;;
46729;SDS011;32476;50.002;11.854;2022-11-20T04:41:26;21.67;;;10.50;;
46729;SDS011;32476;50.002;11.854;2022-11-20T04:43:56;21.27;;;10.70;;
46729;SDS011;32476;50.002;11.854;2022-11-20T04:46:26;27.90;;;12.23;;
46729;SDS011;32476;50.002;11.854;2022-11-20T04:48:53;22.10;;;10.53;;
46729;SDS011;32476;50.002;11.854;2022-11-20T04:51:19;22.57;;;10.60;;
46729;SDS011;32476;50.002;11.854;2022-11-20T04:53:46;19.90;;;9.77;;
46729;SDS011;32476;50.002;11.854;2022-11-20T04:56:13;23.53;;;10.40;;
46729;SDS011;32476;50.002;11.854;2022-11-20T04:58:39;22.37;;;11.30;;
46729;SDS011;32476;50.002;11.854;2022-11-20T05:01:17;27.50;;;11.53;;
46729;SDS011;32476;50.002;11.854;2022-11-20T05:03:46;27.13;;;12.20;;
46729;SDS011;32476;50.002;11.854;2022-11-20T05:06:14;25.33;;;11.30;;
46729;SDS011;32476;50.002;11.854;2022-11-20T05:08:43;26.30;;;11.83;;
46729;SDS011;32476;50.002;11.854;2022-11-20T05:11:10;40.80;;;13.43;;
46729;SDS011;32476;50.002;11.854;2022-11-20T05:13:40;27.20;;;11.90;;
46729;SDS011;32476;50.002;11.854;2022-11-20T05:16:11;28.20;;;12.47;;
46729;SDS011;32476;50.002;11.854;2022-11-20T05:18:44;23.23;;;10.67;;
46729;SDS011;32476;50.002;11.854;2022-11-20T05:21:11;24.87;;;10.67;;
46729;SDS011;32476;50.002;11.854;2022-11-20T05:23:38;26.57;;;11.63;;
46729;SDS011;32476;50.002;11.854;2022-11-20T05:26:07;27.70;;;12.23;;
46729;SDS011;32476;50.002;11.854;2022-11-20T05:28:40;25.20;;;13.00;;
46729;SDS011;32476;50.002;11.854;2022-11-20T05:31:09;26.83;;;12.70;;
46729;SDS011;32476;50.002;11.854;2022-11-20T05:33:39;23.53;;;10.67;;
46729;SDS011;32476;50.002;11.854;2022-11-20T05:36:08;27.30;;;12.17;;
46729;SDS011;32476;50.002;11.854;2022-11-20T05:38:36;20.40;;;10.10;;
46729;SDS011;32476;50.002;11.854;2022-11-20T05:41:06;21.23;;;10.67;;
46729;SDS011;32476;50.002;11.854;2022-11-20T05:43:43;18.63;;;9.83;;
46729;SDS011;32476;50.002;11.854;2022-11-20T05:46:11;18.07;;;10.33;;
46729;SDS011;32476;50.002;11.854;2022-11-20T05:48:40;20.50;;;11.43;;
46729;SDS011;32476;50.002;11.854;2022-11-20T05:51:09;21.40;;;11.10;;
46729;SDS011;32476;50.002;11.854;2022-11-20T05:53:38;19.83;;;10.63;;
46729;SDS011;32476;50.002;11.854;2022-11-20T05:56:05;20.53;;;11.27;;
46729;SDS011;32476;50.002;11.854;2022-11-20T05:58:36;21.63;;;11.17;;
46729;SDS011;32476;50.002;11.854;2022-11-20T06:01:04;22.23;;;11.20;;
46729;SDS011;32476;50.002;11.854;2022-11-20T06:03:50;24.00;;;11.50;;
46729;SDS011;32476;50.002;11.854;2022-11-20T06:06:18;21.50;;;11.67;;
46729;SDS011;32476;50.002;11.854;2022-11-20T06:08:44;22.80;;;11.80;;
46729;SDS011;32476;50.002;11.854;2022-11-20T06:11:13;22.77;;;11.33;;
46729;SDS011;32476;50.002;11.854;2022-11-20T06:13:40;34.40;;;18.40;;
46729;SDS011;32476;50.002;11.854;2022-11-20T06:16:07;33.53;;;17.97;;
46729;SDS011;32476;50.002;11.854;2022-11-20T06:18:34;27.90;;;15.40;;
46729;SDS011;32476;50.002;11.854;2022-11-20T06:21:05;28.23;;;15.77;;
46729;SDS011;32476;50.002;11.854;2022-11-20T06:23:39;30.33;;;15.90;;
46729;SDS011;32476;50.002;11.854;2022-11-20T06:26:06;25.03;;;13.47;;
46729;SDS011;32476;50.002;11.854;2022-11-20T06:28:42;24.53;;;13.30;;
46729;SDS011;32476;50.002;11.854;2022-11-20T06:31:10;25.60;;;12.37;;
46729;SDS011;32476;50.002;11.854;2022-11-20T06:33:40;23.23;;;11.17;;
46729;SDS011;32476;50.002;11.854;2022-11-20T06:36:09;22.90;;;11.80;;
46729;SDS011;32476;50.002;11.854;2022-11-20T06:38:37;22.13;;;11.87;;
46729;SDS011;32476;50.002;11.854;2022-11-20T06:41:04;21.43;;;10.63;;
46729;SDS011;32476;50.002;11.854;2022-11-20T06:43:33;23.03;;;11.53;;
46729;SDS011;32476;50.002;11.854;2022-11-20T06:45:59;19.87;;;10.60;;
46729;SDS011;32476;50.002;11.854;2022-11-20T06:48:28;20.07;;;11.53;;
46729;SDS011;32476;50.002;11.854;2022-11-20T06:50:56;22.77;;;11.77;;
46729;SDS011;32476;50.002;11.854;2022-11-20T06:53:22;22.20;;;12.03;;
46729;SDS011;32476;50.002;11.854;2022-11-20T06:55:49;22.07;;;12.00;;
46729;SDS011;32476;50.002;11.854;2022-11-20T06:58:18;22.13;;;12.57;;
46729;SDS011;32476;50.002;11.854;2022-11-20T07:00:44;23.33;;;12.60;;
46729;SDS011;32476;50.002;11.854;2022-11-20T07:03:10;23.93;;;12.90;;
46729;SDS011;32476;50.002;11.854;2022-11-20T07:05:39;29.13;;;14.47;;
46729;SDS011;32476;50.002;11.854;2022-11-20T07:08:06;28.10;;;14.87;;
46729;SDS011;32476;50.002;11.854;2022-11-20T07:10:32;27.70;;;13.60;;
46729;SDS011;32476;50.002;11.854;2022-11-20T07:13:00;24.10;;;12.80;;
46729;SDS011;32476;50.002;11.854;2022-11-20T07:15:26;26.93;;;13.80;;
46729;SDS011;32476;50.002;11.854;2022-11-20T07:17:53;29.40;;;15.80;;
46729;SDS011;32476;50.002;11.854;2022-11-20T07:20:20;28.70;;;15.20;;
46729;SDS011;32476;50.002;11.854;2022-11-20T07:22:46;25.93;;;13.77;;
46729;SDS011;32476;50.002;11.854;2022-11-20T07:25:19;27.63;;;13.83;;
46729;SDS011;32476;50.002;11.854;2022-11-20T07:27:46;25.93;;;13.93;;
46729;SDS011;32476;50.002;11.854;2022-11-20T07:30:12;27.07;;;14.03;;
46729;SDS011;32476;50.002;11.854;2022-11-20T07:32:39;27.33;;;13.87;;
46729;SDS011;32476;50.002;11.854;2022-11-20T07:35:07;29.37;;;13.97;;
46729;SDS011;32476;50.002;11.854;2022-11-20T07:37:34;25.67;;;13.70;;
46729;SDS011;32476;50.002;11.854;2022-11-20T07:40:00;35.80;;;18.43;;
46729;SDS011;32476;50.002;11.854;2022-11-20T07:42:27;28.73;;;15.50;;
46729;SDS011;32476;50.002;11.854;2022-11-20T07:44:53;36.50;;;17.40;;
46729;SDS011;32476;50.002;11.854;2022-11-20T07:47:19;30.53;;;16.17;;
46729;SDS011;32476;50.002;11.854;2022-11-20T07:49:47;31.07;;;15.90;;
46729;SDS011;32476;50.002;11.854;2022-11-20T07:52:13;31.00;;;16.53;;
46729;SDS011;32476;50.002;11.854;2022-11-20T07:54:39;29.37;;;15.30;;
46729;SDS011;32476;50.002;11.854;2022-11-20T07:57:06;35.47;;;19.33;;
46729;SDS011;32476;50.002;11.854;2022-11-20T07:59:32;31.97;;;15.43;;
46729;SDS011;32476;50.002;11.854;2022-11-20T08:01:58;33.33;;;16.33;;
46729;SDS011;32476;50.002;11.854;2022-11-20T08:04:25;32.07;;;15.53;;
46729;SDS011;32476;50.002;11.854;2022-11-20T08:06:52;31.67;;;16.30;;
46729;SDS011;32476;50.002;11.854;2022-11-20T08:09:18;32.87;;;16.50;;
46729;SDS011;32476;50.002;11.854;2022-11-20T08:11:45;31.90;;;17.13;;
46729;SDS011;32476;50.002;11.854;2022-11-20T08:14:30;33.07;;;16.40;;
46729;SDS011;32476;50.002;11.854;2022-11-20T08:16:58;34.13;;;16.97;;
46729;SDS011;32476;50.002;11.854;2022-11-20T08:19:25;36.90;;;17.80;;
46729;SDS011;32476;50.002;11.854;2022-11-20T08:21:50;34.30;;;16.97;;
46729;SDS011;32476;50.002;11.854;2022-11-20T08:24:18;34.17;;;16.70;;
46729;SDS011;32476;50.002;11.854;2022-11-20T08:26:44;34.27;;;16.53;;
46729;SDS011;32476;50.002;11.854;2022-11-20T08:29:10;33.07;;;17.10;;
46729;SDS011;32476;50.002;11.854;2022-11-20T08:31:37;32.13;;;15.67;;
46729;SDS011;32476;50.002;11.854;2022-11-20T08:34:03;33.67;;;17.07;;
46729;SDS011;32476;50.002;11.854;2022-11-20T08:36:32;32.33;;;16.70;;
46729;SDS011;32476;50.002;11.854;2022-11-20T08:39:02;31.97;;;16.97;;
46729;SDS011;32476;50.002;11.854;2022-11-20T08:41:28;33.93;;;16.53;;
46729;SDS011;32476;50.002;11.854;2022-11-20T08:44:05;34.10;;;17.73;;
46729;SDS011;32476;50.002;11.854;2022-11-20T08:46:35;34.43;;;17.53;;
46729;SDS011;32476;50.002;11.854;2022-11-20T08:49:08;35.40;;;18.13;;
46729;SDS011;32476;50.002;11.854;2022-11-20T08:51:37;31.23;;;16.40;;
46729;SDS011;32476;50.002;11.854;2022-11-20T08:54:04;37.23;;;18.10;;
46729;SDS011;32476;50.002;11.854;2022-11-20T08:56:31;39.50;;;19.53;;
46729;SDS011;32476;50.002;11.854;2022-11-20T08:58:59;34.23;;;16.93;;
46729;SDS011;32476;50.002;11.854;2022-11-20T09:01:25;31.83;;;16.60;;
46729;SDS011;32476;50.002;11.854;2022-11-20T09:03:56;34.90;;;17.20;;
46729;SDS011;32476;50.002;11.854;2022-11-20T09:06:24;30.77;;;16.80;;
46729;SDS011;32476;50.002;11.854;2022-11-20T09:08:51;33.77;;;17.53;;
46729;SDS011;32476;50.002;11.854;2022-11-20T09:11:18;31.63;;;16.70;;
46729;SDS011;32476;50.002;11.854;2022-11-20T09:13:46;34.33;;;17.77;;
46729;SDS011;32476;50.002;11.854;2022-11-20T09:16:12;31.63;;;16.97;;
46729;SDS011;32476;50.002;11.854;2022-11-20T09:18:38;34.50;;;18.30;;
46729;SDS011;32476;50.002;11.854;2022-11-20T09:21:07;38.20;;;19.23;;
46729;SDS011;32476;50.002;11.854;2022-11-20T09:23:36;33.90;;;18.27;;
46729;SDS011;32476;50.002;11.854;2022-11-20T09:26:04;31.30;;;17.23;;
46729;SDS011;32476;50.002;11.854;2022-11-20T09:28:40;34.97;;;17.87;;
46729;SDS011;32476;50.002;11.854;2022-11-20T09:31:12;39.33;;;15.60;;
46729;SDS011;32476;50.002;11.854;2022-11-20T09:33:48;28.73;;;12.77;;
46729;SDS011;32476;50.002;11.854;2022-11-20T09:36:14;88.20;;;13.97;;
46729;SDS011;32476;50.002;11.854;2022-11-20T09:38:42;93.83;;;15.27;;
46729;SDS011;32476;50.002;11.854;2022-11-20T09:41:10;65.37;;;12.97;;
46729;SDS011;32476;50.002;11.854;2022-11-20T09:46:54;78.37;;;14.33;;
46729;SDS011;32476;50.002;11.854;2022-11-20T09:55:46;53.17;;;12.43;;
46729;SDS011;32476;50.002;11.854;2022-11-20T09:58:18;37.03;;;11.00;;
46729;SDS011;32476;50.002;11.854;2022-11-20T10:01:00;37.63;;;11.83;;
46729;SDS011;32476;50.002;11.854;2022-11-20T10:03:58;39.33;;;12.83;;
46729;SDS011;32476;50.002;11.854;2022-11-20T10:06:45;79.83;;;14.87;;
46729;SDS011;32476;50.002;11.854;2022-11-20T10:12:00;89.67;;;11.87;;
46729;SDS011;32476;50.002;11.854;2022-11-20T10:18:00;55.13;;;12.73;;
46729;SDS011;32476;50.002;11.854;2022-11-20T10:27:23;49.77;;;10.87;;
46729;SDS011;32476;50.002;11.854;2022-11-20T10:30:26;29.17;;;11.27;;
46729;SDS011;32476;50.002;11.854;2022-11-20T10:32:49;21.50;;;9.70;;
46729;SDS011;32476;50.002;11.854;2022-11-20T10:35:31;31.23;;;10.10;;
46729;SDS011;32476;50.002;11.854;2022-11-20T10:38:14;20.50;;;9.23;;
46729;SDS011;32476;50.002;11.854;2022-11-20T10:41:01;15.87;;;7.87;;
46729;SDS011;32476;50.002;11.854;2022-11-20T10:43:48;22.43;;;7.93;;
46729;SDS011;32476;50.002;11.854;2022-11-20T10:46:22;18.50;;;7.47;;
46729;SDS011;32476;50.002;11.854;2022-11-20T10:48:50;13.33;;;6.27;;
46729;SDS011;32476;50.002;11.854;2022-11-20T10:54:24;10.93;;;5.87;;
46729;SDS011;32476;50.002;11.854;2022-11-20T10:57:07;10.37;;;5.90;;
46729;SDS011;32476;50.002;11.854;2022-11-20T11:02:39;12.67;;;7.10;;
46729;SDS011;32476;50.002;11.854;2022-11-20T11:07:57;10.87;;;5.90;;
46729;SDS011;32476;50.002;11.854;2022-11-20T11:10:34;16.93;;;5.37;;
46729;SDS011;32476;50.002;11.854;2022-11-20T11:13:26;10.83;;;6.17;;
46729;SDS011;32476;50.002;11.854;2022-11-20T11:15:56;7.47;;;4.47;;
46729;SDS011;32476;50.002;11.854;2022-11-20T11:18:26;9.40;;;5.63;;
46729;SDS011;32476;50.002;11.854;2022-11-20T11:20:57;6.50;;;3.90;;
46729;SDS011;32476;50.002;11.854;2022-11-20T11:23:37;6.33;;;3.80;;
46729;SDS011;32476;50.002;11.854;2022-11-20T11:26:23;4.53;;;3.30;;
46729;SDS011;32476;50.002;11.854;2022-11-20T11:29:00;6.60;;;3.47;;
46729;SDS011;32476;50.002;11.854;2022-11-20T11:31:31;7.23;;;4.93;;
46729;SDS011;32476;50.002;11.854;2022-11-20T11:34:07;6.83;;;3.73;;
46729;SDS011;32476;50.002;11.854;2022-11-20T11:36:40;6.27;;;3.53;;
46729;SDS011;32476;50.002;11.854;2022-11-20T11:39:16;5.23;;;3.80;;
46729;SDS011;32476;50.002;11.854;2022-11-20T11:41:46;5.57;;;3.20;;
46729;SDS011;32476;50.002;11.854;2022-11-20T11:47:24;6.53;;;3.80;;
46729;SDS011;32476;50.002;11.854;2022-11-20T11:52:46;6.70;;;4.33;;
46729;SDS011;32476;50.002;11.854;2022-11-20T11:55:43;7.30;;;4.27;;
46729;SDS011;32476;50.002;11.854;2022-11-20T12:07:20;5.43;;;3.60;;
46729;SDS011;32476;50.002;11.854;2022-11-20T12:09:53;6.83;;;4.17;;
46729;SDS011;32476;50.002;11.854;2022-11-20T12:12:27;5.77;;;3.63;;
46729;SDS011;32476;50.002;11.854;2022-11-20T12:15:03;5.73;;;3.67;;
46729;SDS011;32476;50.002;11.854;2022-11-20T12:17:35;4.90;;;3.43;;
46729;SDS011;32476;50.002;11.854;2022-11-20T12:20:05;7.07;;;4.53;;
46729;SDS011;32476;50.002;11.854;2022-11-20T12:22:43;5.13;;;3.47;;
46729;SDS011;32476;50.002;11.854;2022-11-20T12:25:36;6.53;;;3.80;;
46729;SDS011;32476;50.002;11.854;2022-11-20T12:36:28;5.77;;;3.07;;
46729;SDS011;32476;50.002;11.854;2022-11-20T12:42:27;5.37;;;3.43;;
46729;SDS011;32476;50.002;11.854;2022-11-20T12:54:29;7.37;;;3.20;;
46729;SDS011;32476;50.002;11.854;2022-11-20T12:57:18;6.23;;;3.90;;
46729;SDS011;32476;50.002;11.854;2022-11-20T13:03:06;8.13;;;3.97;;
46729;SDS011;32476;50.002;11.854;2022-11-20T13:08:53;22.67;;;4.87;;
46729;SDS011;32476;50.002;11.854;2022-11-20T13:11:27;10.57;;;4.13;;
46729;SDS011;32476;50.002;11.854;2022-11-20T13:19:26;34.30;;;5.90;;
46729;SDS011;32476;50.002;11.854;2022-11-20T13:21:55;41.03;;;5.50;;
46729;SDS011;32476;50.002;11.854;2022-11-20T13:27:02;13.63;;;8.03;;
46729;SDS011;32476;50.002;11.854;2022-11-20T13:29:57;36.43;;;6.20;;
46729;SDS011;32476;50.002;11.854;2022-11-20T13:32:52;50.20;;;7.83;;
46729;SDS011;32476;50.002;11.854;2022-11-20T13:35:40;17.17;;;6.80;;
46729;SDS011;32476;50.002;11.854;2022-11-20T13:38:08;20.00;;;6.10;;
46729;SDS011;32476;50.002;11.854;2022-11-20T13:40:51;70.07;;;9.23;;
46729;SDS011;32476;50.002;11.854;2022-11-20T13:43:28;35.67;;;6.57;;
46729;SDS011;32476;50.002;11.854;2022-11-20T13:46:06;17.27;;;7.10;;
46729;SDS011;32476;50.002;11.854;2022-11-20T13:48:38;25.73;;;7.87;;
46729;SDS011;32476;50.002;11.854;2022-11-20T13:51:20;17.97;;;7.50;;
46729;SDS011;32476;50.002;11.854;2022-11-20T13:54:03;12.60;;;6.13;;
46729;SDS011;32476;50.002;11.854;2022-11-20T13:56:39;11.17;;;5.67;;
46729;SDS011;32476;50.002;11.854;2022-11-20T13:59:38;9.93;;;6.10;;
46729;SDS011;32476;50.002;11.854;2022-11-20T14:02:14;14.40;;;6.70;;
46729;SDS011;32476;50.002;11.854;2022-11-20T14:04:45;18.10;;;6.80;;
46729;SDS011;32476;50.002;11.854;2022-11-20T14:07:16;16.00;;;7.73;;
46729;SDS011;32476;50.002;11.854;2022-11-20T14:10:04;20.43;;;7.43;;
46729;SDS011;32476;50.002;11.854;2022-11-20T14:12:33;28.37;;;7.07;;
46729;SDS011;32476;50.002;11.854;2022-11-20T14:14:59;16.23;;;5.83;;
46729;SDS011;32476;50.002;11.854;2022-11-20T14:20:00;11.10;;;5.90;;
46729;SDS011;32476;50.002;11.854;2022-11-20T14:22:36;13.20;;;6.77;;
46729;SDS011;32476;50.002;11.854;2022-11-20T14:25:23;11.77;;;5.77;;
46729;SDS011;32476;50.002;11.854;2022-11-20T14:27:56;7.70;;;4.97;;
46729;SDS011;32476;50.002;11.854;2022-11-20T14:30:26;10.23;;;5.10;;
46729;SDS011;32476;50.002;11.854;2022-11-20T14:33:03;11.10;;;5.57;;
46729;SDS011;32476;50.002;11.854;2022-11-20T14:35:35;10.23;;;5.87;;
46729;SDS011;32476;50.002;11.854;2022-11-20T14:38:13;8.27;;;5.17;;
46729;SDS011;32476;50.002;11.854;2022-11-20T14:40:43;10.67;;;6.50;;
46729;SDS011;32476;50.002;11.854;2022-11-20T14:46:02;8.27;;;5.10;;
46729;SDS011;32476;50.002;11.854;2022-11-20T14:48:45;9.80;;;5.57;;
46729;SDS011;32476;50.002;11.854;2022-11-20T14:57:00;8.73;;;5.97;;
46729;SDS011;32476;50.002;11.854;2022-11-20T14:59:29;11.43;;;6.50;;
46729;SDS011;32476;50.002;11.854;2022-11-20T15:02:09;11.47;;;6.90;;
46729;SDS011;32476;50.002;11.854;2022-11-20T15:04:49;13.63;;;7.03;;
46729;SDS011;32476;50.002;11.854;2022-11-20T15:07:25;13.07;;;7.60;;
46729;SDS011;32476;50.002;11.854;2022-11-20T15:12:35;13.47;;;7.83;;
46729;SDS011;32476;50.002;11.854;2022-11-20T15:15:06;16.97;;;9.40;;
46729;SDS011;32476;50.002;11.854;2022-11-20T15:17:37;12.43;;;7.70;;
46729;SDS011;32476;50.002;11.854;2022-11-20T15:20:05;15.73;;;9.10;;
46729;SDS011;32476;50.002;11.854;2022-11-20T15:22:41;14.97;;;8.97;;
46729;SDS011;32476;50.002;11.854;2022-11-20T15:25:11;14.50;;;8.37;;
46729;SDS011;32476;50.002;11.854;2022-11-20T15:27:43;17.43;;;9.17;;
46729;SDS011;32476;50.002;11.854;2022-11-20T15:30:17;15.27;;;8.53;;
46729;SDS011;32476;50.002;11.854;2022-11-20T15:32:46;16.40;;;8.83;;
46729;SDS011;32476;50.002;11.854;2022-11-20T15:35:13;13.60;;;7.63;;
46729;SDS011;32476;50.002;11.854;2022-11-20T15:37:40;13.17;;;7.77;;
46729;SDS011;32476;50.002;11.854;2022-11-20T15:40:08;13.97;;;8.60;;
46729;SDS011;32476;50.002;11.854;2022-11-20T15:42:35;14.13;;;8.53;;
46729;SDS011;32476;50.002;11.854;2022-11-20T15:45:01;17.63;;;8.30;;
46729;SDS011;32476;50.002;11.854;2022-11-20T15:47:30;13.63;;;6.83;;
46729;SDS011;32476;50.002;11.854;2022-11-20T15:50:00;13.90;;;8.37;;
46729;SDS011;32476;50.002;11.854;2022-11-20T15:52:26;15.30;;;8.90;;
46729;SDS011;32476;50.002;11.854;2022-11-20T15:54:54;13.83;;;8.23;;
46729;SDS011;32476;50.002;11.854;2022-11-20T15:57:20;18.00;;;9.93;;
46729;SDS011;32476;50.002;11.854;2022-11-20T15:59:46;14.17;;;7.90;;
46729;SDS011;32476;50.002;11.854;2022-11-20T16:02:14;14.80;;;8.47;;
46729;SDS011;32476;50.002;11.854;2022-11-20T16:04:41;16.73;;;9.03;;
46729;SDS011;32476;50.002;11.854;2022-11-20T16:07:07;15.37;;;8.10;;
46729;SDS011;32476;50.002;11.854;2022-11-20T16:09:35;15.17;;;9.13;;
46729;SDS011;32476;50.002;11.854;2022-11-20T16:12:01;14.63;;;9.03;;
46729;SDS011;32476;50.002;11.854;2022-11-20T16:14:27;14.67;;;8.40;;
46729;SDS011;32476;50.002;11.854;2022-11-20T16:17:13;15.67;;;8.77;;
46729;SDS011;32476;50.002;11.854;2022-11-20T16:19:39;13.80;;;8.00;;
46729;SDS011;32476;50.002;11.854;2022-11-20T16:22:05;16.23;;;9.17;;
46729;SDS011;32476;50.002;11.854;2022-11-20T16:24:32;16.23;;;9.03;;
46729;SDS011;32476;50.002;11.854;2022-11-20T16:26:58;15.73;;;9.60;;